createdAt,value
2023-03-14T00:02:00.974Z,99275.59
2023-03-14T00:04:29.236Z,99295.45
2023-03-14T00:06:57.430Z,99285.24
2023-03-14T00:09:27.592Z,99277.37
2023-03-14T00:11:55.708Z,99272.97
2023-03-14T00:14:24.383Z,99277.18
2023-03-14T00:16:52.556Z,99278.16
2023-03-14T00:19:20.961Z,99275.96
2023-03-14T00:21:49.308Z,99266.80
2023-03-14T00:24:17.716Z,99264.02
2023-03-14T00:26:46.108Z,99266.20
2023-03-14T00:29:14.436Z,99264.55
2023-03-14T00:31:42.708Z,99270.40
2023-03-14T00:34:10.879Z,99266.21
2023-03-14T00:36:39.292Z,99263.61
2023-03-14T00:39:08.006Z,99269.30
2023-03-14T00:41:36.215Z,99262.14
2023-03-14T00:44:04.456Z,99231.61
2023-03-14T00:46:32.879Z,99257.20
2023-03-14T00:49:01.178Z,99243.56
2023-03-14T00:51:29.284Z,99247.65
2023-03-14T00:53:57.622Z,99260.50
2023-03-14T00:56:25.975Z,99261.30
2023-03-14T00:58:56.758Z,99255.56
2023-03-14T01:01:25.916Z,99244.02
2023-03-14T01:03:55.921Z,99252.27
2023-03-14T01:06:26.622Z,99252.42
2023-03-14T01:08:57.111Z,99244.05
2023-03-14T01:11:34.131Z,99245.02
2023-03-14T01:14:03.581Z,99241.40
2023-03-14T01:16:34.393Z,99238.64
2023-03-14T01:19:03.599Z,99239.32
2023-03-14T01:21:34.730Z,99233.33
2023-03-14T01:24:05.787Z,99224.94
2023-03-14T01:26:35.904Z,99214.85
2023-03-14T01:29:05.395Z,99209.09
2023-03-14T01:31:35.051Z,99202.04
2023-03-14T01:34:03.570Z,99188.36
2023-03-14T01:36:31.985Z,99174.77
2023-03-14T01:39:02.971Z,99160.46
2023-03-14T01:41:31.293Z,99175.10
2023-03-14T01:44:00.285Z,99177.21
2023-03-14T01:46:46.743Z,99174.90
2023-03-14T01:49:32.956Z,99175.06
2023-03-14T01:52:13.882Z,99159.48
2023-03-14T01:54:45.549Z,99169.52
2023-03-14T02:00:26.902Z,99174.64
2023-03-14T02:03:03.408Z,99178.06
2023-03-14T02:05:36.143Z,99173.27
2023-03-14T02:08:12.548Z,99166.65
2023-03-14T02:10:49.178Z,99172.48
2023-03-14T02:13:21.434Z,99164.23
2023-03-14T02:16:15.932Z,99149.30
2023-03-14T02:18:44.227Z,99155.77
2023-03-14T02:21:58.782Z,99152.13
2023-03-14T02:24:43.981Z,99147.90
2023-03-14T02:27:16.673Z,99128.56
2023-03-14T02:29:57.588Z,99137.22
2023-03-14T02:32:28.733Z,99142.00
2023-03-14T02:35:00.066Z,99123.12
2023-03-14T02:37:38.030Z,99151.05
2023-03-14T02:40:06.927Z,99141.21
2023-03-14T02:42:35.288Z,99148.09
2023-03-14T02:45:10.361Z,99148.26
2023-03-14T02:47:49.168Z,99145.63
2023-03-14T02:50:21.712Z,99140.35
2023-03-14T02:52:49.945Z,99137.18
2023-03-14T02:55:25.223Z,99137.56
2023-03-14T02:57:54.600Z,99139.91
2023-03-14T03:00:23.285Z,99143.66
2023-03-14T03:02:52.291Z,99149.24
2023-03-14T03:05:20.785Z,99148.31
2023-03-14T03:07:48.919Z,99146.31
2023-03-14T03:10:17.699Z,99152.42
2023-03-14T03:12:46.186Z,99165.00
2023-03-14T03:15:14.376Z,99171.64
2023-03-14T03:17:42.587Z,99184.70
2023-03-14T03:20:11.213Z,99190.14
2023-03-14T03:22:40.954Z,99193.17
2023-03-14T03:25:12.437Z,99188.56
2023-03-14T03:27:40.769Z,99188.24
2023-03-14T03:30:10.779Z,99184.33
2023-03-14T03:32:38.987Z,99168.17
2023-03-14T03:35:07.851Z,99174.30
2023-03-14T03:37:38.123Z,99177.08
2023-03-14T03:40:09.323Z,99180.65
2023-03-14T03:42:37.980Z,99185.85
2023-03-14T03:45:09.178Z,99180.45
2023-03-14T03:47:40.350Z,99184.70
2023-03-14T03:50:09.668Z,99193.42
2023-03-14T03:52:37.849Z,99204.31
2023-03-14T03:55:06.555Z,99200.30
2023-03-14T03:57:34.892Z,99193.05
2023-03-14T04:00:06.081Z,99201.06
2023-03-14T04:02:42.412Z,99194.73
2023-03-14T04:05:14.881Z,99199.11
2023-03-14T04:07:50.012Z,99190.75
2023-03-14T04:10:23.515Z,99185.36
2023-03-14T04:13:05.626Z,99180.89
2023-03-14T04:15:36.007Z,99177.70
2023-03-14T04:18:10.355Z,99173.48
2023-03-14T04:20:38.519Z,99168.14
2023-03-14T04:23:06.990Z,99160.47
2023-03-14T04:25:35.279Z,99153.23
2023-03-14T04:28:06.384Z,99147.44
2023-03-14T04:30:35.251Z,99144.06
2023-03-14T04:33:24.154Z,99144.73
2023-03-14T04:35:55.689Z,99137.83
2023-03-14T04:38:24.235Z,99122.48
2023-03-14T04:40:53.633Z,99116.13
2023-03-14T04:43:24.409Z,99105.42
2023-03-14T04:45:58.189Z,99114.52
2023-03-14T04:48:27.725Z,99110.34
2023-03-14T04:50:56.276Z,99112.48
2023-03-14T04:53:24.851Z,99102.57
2023-03-14T04:55:56.756Z,99099.81
2023-03-14T04:58:27.273Z,99098.13
2023-03-14T05:00:57.337Z,99088.53
2023-03-14T05:03:51.963Z,99096.70
2023-03-14T05:06:43.464Z,99078.98
2023-03-14T05:09:27.732Z,99089.53
2023-03-14T05:12:22.056Z,99086.52
2023-03-14T05:14:58.241Z,99084.23
2023-03-14T05:17:53.263Z,99072.60
2023-03-14T05:20:45.220Z,99077.41
2023-03-14T05:23:36.568Z,99073.14
2023-03-14T05:26:18.096Z,99057.04
2023-03-14T05:29:06.585Z,99053.56
2023-03-14T05:31:57.874Z,99050.00
2023-03-14T05:34:41.707Z,99048.33
2023-03-14T05:37:32.624Z,99048.63
2023-03-14T05:40:21.157Z,99044.92
2023-03-14T05:42:59.811Z,99046.25
2023-03-14T05:45:55.266Z,99051.71
2023-03-14T05:48:29.310Z,99050.33
2023-03-14T05:51:10.286Z,99055.44
2023-03-14T05:53:47.242Z,99058.02
2023-03-14T05:56:41.631Z,99060.35
2023-03-14T05:59:16.303Z,99051.70
2023-03-14T06:01:58.602Z,99064.33
2023-03-14T06:04:28.259Z,99064.91
2023-03-14T06:06:58.661Z,99086.10
2023-03-14T06:09:27.179Z,99096.20
2023-03-14T06:11:57.429Z,99091.36
2023-03-14T06:14:26.209Z,99105.23
2023-03-14T06:16:55.062Z,99101.05
2023-03-14T06:19:24.738Z,99099.34
2023-03-14T06:21:53.021Z,99101.67
2023-03-14T06:24:21.568Z,99082.40
2023-03-14T06:26:50.786Z,99101.68
2023-03-14T06:29:18.922Z,99103.67
2023-03-14T06:31:47.271Z,99089.36
2023-03-14T06:34:17.055Z,99093.36
2023-03-14T06:36:45.445Z,99105.38
2023-03-14T06:39:13.727Z,99111.61
2023-03-14T06:41:44.744Z,99109.63
2023-03-14T06:44:13.037Z,99112.40
2023-03-14T06:46:41.272Z,99118.67
2023-03-14T06:49:09.614Z,99108.14
2023-03-14T06:51:38.189Z,99104.16
2023-03-14T06:54:06.690Z,99112.20
2023-03-14T06:56:34.884Z,99103.80
2023-03-14T06:59:03.116Z,99109.02
2023-03-14T07:01:33.970Z,99102.40
2023-03-14T07:04:11.252Z,99103.17
2023-03-14T07:06:45.351Z,99089.89
2023-03-14T07:09:14.314Z,99095.75
2023-03-14T07:11:46.452Z,99095.71
2023-03-14T07:14:14.690Z,99090.89
2023-03-14T07:16:42.895Z,99096.23
2023-03-14T07:19:11.066Z,99098.25
2023-03-14T07:21:39.403Z,99110.37
2023-03-14T07:24:09.757Z,99106.77
2023-03-14T07:26:38.037Z,99107.67
2023-03-14T07:29:06.932Z,99107.24
2023-03-14T07:31:35.192Z,99104.98
2023-03-14T07:34:04.198Z,99110.48
2023-03-14T07:36:36.179Z,99112.13
2023-03-14T07:39:05.373Z,99111.38
2023-03-14T07:41:39.063Z,99103.92
2023-03-14T07:44:26.171Z,99105.59
2023-03-14T07:46:54.638Z,99079.05
2023-03-14T07:49:22.903Z,99078.98
2023-03-14T07:51:51.302Z,99085.38
2023-03-14T07:54:21.125Z,99089.52
2023-03-14T07:56:49.319Z,99091.21
2023-03-14T07:59:17.843Z,99084.78
2023-03-14T08:01:45.963Z,99078.52
2023-03-14T08:04:14.166Z,99069.46
2023-03-14T08:06:42.341Z,99050.35
2023-03-14T08:09:10.766Z,99049.02
2023-03-14T08:11:39.283Z,99049.50
2023-03-14T08:14:08.006Z,99052.86
2023-03-14T08:16:36.176Z,99067.29
2023-03-14T08:19:04.707Z,99066.29
2023-03-14T08:21:32.818Z,99067.94
2023-03-14T08:24:01.810Z,99066.41
2023-03-14T08:26:30.680Z,99063.13
2023-03-14T08:28:59.125Z,99071.33
2023-03-14T08:31:27.415Z,99069.13
2023-03-14T08:33:56.156Z,99058.61
2023-03-14T08:36:24.424Z,99077.17
2023-03-14T08:38:52.764Z,99071.91
2023-03-14T08:41:21.114Z,99070.80
2023-03-14T08:43:49.565Z,99064.44
2023-03-14T08:46:17.907Z,99059.16
2023-03-14T08:48:46.325Z,99049.66
2023-03-14T08:51:15.723Z,99043.83
2023-03-14T08:53:44.500Z,99043.76
2023-03-14T08:56:12.685Z,99045.27
2023-03-14T08:58:42.489Z,99043.40
2023-03-14T09:01:11.964Z,99040.26
2023-03-14T09:03:40.556Z,99033.35
2023-03-14T09:06:11.197Z,99025.21
2023-03-14T09:08:39.937Z,99023.88
2023-03-14T09:11:09.795Z,99020.48
2023-03-14T09:13:38.842Z,99014.31
2023-03-14T09:16:07.857Z,99002.52
2023-03-14T09:18:36.368Z,98996.16
2023-03-14T09:21:04.792Z,99000.09
2023-03-14T09:23:34.009Z,98996.42
2023-03-14T09:26:02.160Z,99002.09
2023-03-14T09:28:30.394Z,99010.93
2023-03-14T09:30:59.184Z,99008.34
2023-03-14T09:33:27.621Z,98996.34
2023-03-14T09:35:59.722Z,98993.17
2023-03-14T09:38:29.138Z,98990.29
2023-03-14T09:40:59.915Z,98989.84
2023-03-14T09:43:32.696Z,98983.66
2023-03-14T09:46:04.098Z,98978.06
2023-03-14T09:48:35.173Z,98976.09
2023-03-14T09:51:08.728Z,98978.09
2023-03-14T09:53:48.684Z,98984.34
2023-03-14T09:56:27.898Z,99004.02
2023-03-14T09:58:59.381Z,99025.24
2023-03-14T10:01:33.190Z,99041.18
2023-03-14T10:04:11.619Z,99042.98
2023-03-14T10:06:39.865Z,99046.04
2023-03-14T10:09:18.496Z,99053.79
2023-03-14T10:11:46.755Z,99049.77
2023-03-14T10:14:30.348Z,99047.42
2023-03-14T10:17:07.571Z,99044.86
2023-03-14T10:19:36.840Z,99042.21
2023-03-14T10:22:07.146Z,99039.23
2023-03-14T10:24:36.597Z,99024.07
2023-03-14T10:27:20.218Z,99011.31
2023-03-14T10:29:59.866Z,99011.49
2023-03-14T10:32:37.883Z,99013.80
2023-03-14T10:35:15.131Z,99024.73
2023-03-14T10:38:17.665Z,99027.05
2023-03-14T10:40:54.210Z,99034.14
2023-03-14T10:43:29.506Z,99035.25
2023-03-14T10:46:02.454Z,99030.24
2023-03-14T10:48:33.251Z,99037.55
2023-03-14T10:51:07.590Z,99037.52
2023-03-14T10:53:56.412Z,99034.33
2023-03-14T10:56:26.865Z,99034.60
2023-03-14T10:58:58.428Z,99040.34
2023-03-14T11:01:42.048Z,99035.91
2023-03-14T11:04:33.098Z,99033.46
2023-03-14T11:07:08.672Z,99032.14
2023-03-14T11:10:02.057Z,99038.47
2023-03-14T11:12:33.501Z,99034.86
2023-03-14T11:15:26.781Z,99034.88
2023-03-14T11:18:19.884Z,99010.24
2023-03-14T11:21:04.129Z,99018.98
2023-03-14T11:24:09.850Z,99018.46
2023-03-14T11:27:13.777Z,99016.19
2023-03-14T11:30:03.923Z,99009.05
2023-03-14T11:32:51.194Z,99007.52
2023-03-14T11:35:29.866Z,99016.67
2023-03-14T11:38:11.663Z,99019.15
2023-03-14T11:40:41.120Z,99014.69
2023-03-14T11:43:09.364Z,99010.54
2023-03-14T11:45:41.089Z,99001.95
2023-03-14T11:48:46.888Z,98993.16
2023-03-14T11:51:24.446Z,98997.34
2023-03-14T11:54:05.937Z,98986.88
2023-03-14T11:56:54.265Z,98998.45
2023-03-14T11:59:46.750Z,98995.78
2023-03-14T12:02:22.214Z,98983.09
2023-03-14T12:05:19.228Z,99001.80
2023-03-14T12:08:09.230Z,98994.88
2023-03-14T12:10:46.523Z,98993.69
2023-03-14T12:13:17.893Z,98988.79
2023-03-14T12:15:59.853Z,98996.47
2023-03-14T12:18:30.514Z,98986.77
2023-03-14T12:21:13.733Z,98990.66
2023-03-14T12:23:45.797Z,98992.42
2023-03-14T12:26:13.895Z,98986.63
2023-03-14T12:28:51.571Z,98981.60
2023-03-14T12:31:31.780Z,98984.27
2023-03-14T12:34:12.324Z,98988.46
2023-03-14T12:36:57.405Z,98991.98
2023-03-14T12:39:48.432Z,99000.24
2023-03-14T12:42:44.600Z,98983.91
2023-03-14T12:45:13.336Z,98994.24
2023-03-14T12:47:52.451Z,98992.67
2023-03-14T12:50:26.946Z,98992.62
2023-03-14T12:53:24.576Z,98995.34
2023-03-14T12:56:03.766Z,98998.69
2023-03-14T12:59:08.093Z,98996.95
2023-03-14T13:01:36.878Z,98987.14
2023-03-14T13:04:11.482Z,98985.67
2023-03-14T13:07:11.955Z,98993.05
2023-03-14T13:10:12.409Z,98987.55
2023-03-14T13:12:58.751Z,98988.56
2023-03-14T13:15:40.673Z,98989.98
2023-03-14T13:18:27.954Z,99000.36
2023-03-14T13:21:00.614Z,98997.18
2023-03-14T13:23:32.403Z,98998.56
2023-03-14T13:26:01.971Z,98990.69
2023-03-14T13:28:32.039Z,98989.73
2023-03-14T13:31:03.812Z,98987.31
2023-03-14T13:33:34.471Z,98990.01
2023-03-14T13:36:06.214Z,98988.11
2023-03-14T13:38:37.138Z,98992.35
2023-03-14T13:41:07.924Z,98988.91
2023-03-14T13:43:44.552Z,98981.26
2023-03-14T13:46:21.030Z,98987.53
2023-03-14T13:48:54.477Z,98981.40
2023-03-14T13:51:23.593Z,98981.27
2023-03-14T13:54:14.205Z,98982.08
2023-03-14T13:56:42.664Z,98979.27
2023-03-14T13:59:23.944Z,98979.65
2023-03-14T14:01:54.632Z,98976.33
2023-03-14T14:04:26.450Z,98976.33
2023-03-14T14:07:00.338Z,98983.39
2023-03-14T14:09:31.985Z,98983.14
2023-03-14T14:12:16.857Z,98977.69
2023-03-14T14:15:21.075Z,98980.75
2023-03-14T14:17:58.659Z,98974.45
2023-03-14T14:20:35.909Z,98971.84
2023-03-14T14:23:07.588Z,98966.55
2023-03-14T14:25:36.046Z,98965.55
2023-03-14T14:28:24.815Z,98965.98
2023-03-14T14:31:25.272Z,98954.05
2023-03-14T14:34:04.454Z,98965.35
2023-03-14T14:36:45.738Z,98965.69
2023-03-14T14:39:27.321Z,98967.81
2023-03-14T14:41:55.840Z,98963.63
2023-03-14T14:44:32.791Z,98963.92
2023-03-14T14:47:04.723Z,98963.39
2023-03-14T14:49:34.473Z,98959.31
2023-03-14T14:52:16.061Z,98969.72
2023-03-14T14:54:47.686Z,98973.09
2023-03-14T15:13:28.146Z,98965.39
2023-03-14T15:23:44.617Z,98970.54
2023-03-14T15:26:17.034Z,98974.48
2023-03-14T15:28:47.039Z,98974.48
2023-03-14T15:31:16.683Z,98978.48
2023-03-14T15:33:46.794Z,98977.56
2023-03-14T15:36:28.158Z,98980.52
2023-03-14T15:38:59.056Z,98980.95
2023-03-14T15:41:29.123Z,98979.84
2023-03-14T15:43:57.328Z,98977.20
2023-03-14T15:46:25.792Z,98982.64
2023-03-14T15:48:54.167Z,98988.84
2023-03-14T15:51:22.448Z,98986.70
2023-03-14T15:53:50.829Z,98988.48
2023-03-14T15:56:21.145Z,98996.36
2023-03-14T15:58:49.515Z,98992.31
2023-03-14T16:01:17.876Z,98997.96
2023-03-14T16:03:46.440Z,98998.98
2023-03-14T16:06:15.081Z,99001.97
2023-03-14T16:08:45.972Z,99004.56
2023-03-14T16:11:16.000Z,99006.00
2023-03-14T16:13:45.021Z,99001.10
2023-03-14T16:16:13.557Z,99003.83
2023-03-14T16:18:41.890Z,99001.15
2023-03-14T16:21:15.972Z,99012.85
2023-03-14T16:23:44.859Z,99015.95
2023-03-14T16:26:15.995Z,99009.13
2023-03-14T16:28:45.533Z,99009.71
2023-03-14T16:31:19.370Z,99009.34
2023-03-14T16:33:47.659Z,99005.41
2023-03-14T16:36:15.959Z,99003.55
2023-03-14T16:38:45.658Z,99006.63
2023-03-14T16:41:17.038Z,99010.77
2023-03-14T16:43:45.974Z,99011.18
2023-03-14T16:46:18.298Z,99011.77
2023-03-14T16:48:46.594Z,99007.29
2023-03-14T16:51:16.639Z,99009.71
2023-03-14T16:53:45.813Z,99018.60
2023-03-14T16:56:15.012Z,99023.39
2023-03-14T16:58:44.044Z,99023.73
2023-03-14T17:01:14.508Z,99009.58
2023-03-14T17:03:47.204Z,99027.34
2023-03-14T17:06:18.640Z,99028.34
2023-03-14T17:08:46.873Z,99028.76
2023-03-14T17:11:15.284Z,99032.24
2023-03-14T17:13:44.045Z,99029.66
2023-03-14T17:16:12.866Z,99033.73
2023-03-14T17:18:41.066Z,99035.48
2023-03-14T17:21:09.538Z,99034.05
2023-03-14T17:23:37.712Z,99034.14
2023-03-14T17:26:06.046Z,99030.73
2023-03-14T17:28:34.576Z,99040.03
2023-03-14T17:31:12.925Z,99041.86
2023-03-14T17:33:41.244Z,99045.64
2023-03-14T17:36:11.398Z,99034.36
2023-03-14T17:38:40.056Z,99049.61
2023-03-14T17:41:11.140Z,99054.44
2023-03-14T17:43:39.831Z,99053.90
2023-03-14T17:46:15.226Z,99052.48
2023-03-14T17:48:45.952Z,99052.14
2023-03-14T17:51:15.315Z,99055.16
2023-03-14T17:53:43.941Z,99053.80
2023-03-14T17:56:12.811Z,99051.45
2023-03-14T17:58:44.376Z,99051.75
2023-03-14T18:01:20.076Z,99054.67
2023-03-14T18:03:48.430Z,99054.92
2023-03-14T18:06:17.879Z,99053.60
2023-03-14T18:08:46.879Z,99055.52
2023-03-14T18:11:15.953Z,99053.38
2023-03-14T18:13:44.223Z,99055.98
2023-03-14T18:16:16.907Z,99059.05
2023-03-14T18:18:48.673Z,99054.27
2023-03-14T18:21:17.877Z,99054.67
2023-03-14T18:23:46.243Z,99064.08
2023-03-14T18:26:14.406Z,99063.85
2023-03-14T18:28:42.614Z,99059.45
2023-03-14T18:31:13.503Z,99064.51
2023-03-14T18:33:42.628Z,99066.26
2023-03-14T18:36:12.242Z,99063.80
2023-03-14T18:38:43.784Z,99053.27
2023-03-14T18:41:14.731Z,99070.98
2023-03-14T18:43:43.733Z,99073.57
2023-03-14T18:46:13.032Z,99074.73
2023-03-14T18:48:44.038Z,99073.14
2023-03-14T18:51:16.193Z,99069.37
2023-03-14T18:53:45.790Z,99068.52
2023-03-14T18:56:14.421Z,99055.42
2023-03-14T18:58:43.020Z,99072.34
2023-03-14T19:01:12.650Z,99074.56
2023-03-14T19:03:42.398Z,99078.64
2023-03-14T19:06:12.230Z,99076.88
2023-03-14T19:08:42.420Z,99075.44
2023-03-14T19:11:12.828Z,99079.66
2023-03-14T19:13:42.212Z,99082.18
2023-03-14T19:16:15.848Z,99082.61
2023-03-14T19:18:44.474Z,99089.95
2023-03-14T19:21:14.461Z,99094.19
2023-03-14T19:23:44.245Z,99099.34
2023-03-14T19:26:12.345Z,99098.52
2023-03-14T19:28:40.477Z,99104.52
2023-03-14T19:31:08.655Z,99105.78
2023-03-14T19:33:37.660Z,99110.95
2023-03-14T19:36:06.285Z,99111.78
2023-03-14T19:38:34.481Z,99115.11
2023-03-14T19:41:02.615Z,99117.34
2023-03-14T19:43:30.963Z,99116.38
2023-03-14T19:45:59.506Z,99122.89
2023-03-14T19:48:30.626Z,99126.08
2023-03-14T19:51:02.886Z,99129.10
2023-03-14T19:53:31.596Z,99134.84
2023-03-14T19:55:59.692Z,99136.84
2023-03-14T19:58:27.959Z,99139.02
2023-03-14T20:00:57.040Z,99142.93
2023-03-14T20:03:25.367Z,99150.20
2023-03-14T20:05:53.970Z,99150.71
2023-03-14T20:08:23.193Z,99154.62
2023-03-14T20:10:51.420Z,99160.20
2023-03-14T20:13:22.343Z,99164.80
2023-03-14T20:15:53.275Z,99171.34
2023-03-14T20:18:23.401Z,99175.70
2023-03-14T20:20:52.360Z,99180.73
2023-03-14T20:23:20.702Z,99183.39
2023-03-14T20:25:59.407Z,99186.77
2023-03-14T20:28:27.499Z,99201.73
2023-03-14T20:30:55.708Z,99282.14
2023-03-14T20:33:24.649Z,99314.55
2023-03-14T20:35:57.806Z,99335.27
2023-03-14T20:38:27.647Z,99380.99
2023-03-14T20:40:57.470Z,99394.27
2023-03-14T20:43:26.242Z,99400.14
2023-03-14T20:45:59.506Z,99421.45
2023-03-14T20:48:30.326Z,99402.13
2023-03-14T20:50:58.935Z,99430.13
2023-03-14T20:53:27.283Z,99445.59
2023-03-14T20:55:57.552Z,99442.19
2023-03-14T20:58:25.844Z,99446.77
2023-03-14T21:00:56.255Z,99455.16
2023-03-14T21:03:25.059Z,99465.79
2023-03-14T21:05:53.268Z,99473.30
2023-03-14T21:08:23.658Z,99471.83
2023-03-14T21:10:53.937Z,99479.61
2023-03-14T21:13:22.993Z,99487.34
2023-03-14T21:15:51.141Z,99493.26
2023-03-14T21:18:20.357Z,99505.15
2023-03-14T21:20:48.376Z,99516.66
2023-03-14T21:23:17.956Z,99529.15
2023-03-14T21:25:47.425Z,99537.48
2023-03-14T21:28:15.535Z,99522.66
2023-03-14T21:30:43.813Z,99551.92
2023-03-14T21:33:13.469Z,99552.34
2023-03-14T21:35:42.082Z,99560.16
2023-03-14T21:38:10.151Z,99562.43
2023-03-14T21:40:38.473Z,99578.41
2023-03-14T21:43:06.605Z,99587.48
2023-03-14T21:45:35.884Z,99588.08
2023-03-14T21:48:04.117Z,99585.48
2023-03-14T21:50:32.195Z,99593.72
2023-03-14T21:53:00.213Z,99591.95
2023-03-14T21:55:28.251Z,99607.91
2023-03-14T21:57:57.209Z,99620.39
2023-03-14T22:00:26.208Z,99634.94
2023-03-14T22:03:13.968Z,99652.70
2023-03-14T22:05:44.195Z,99664.90
2023-03-14T22:08:14.570Z,99674.93
2023-03-14T22:10:47.233Z,99677.20
2023-03-14T22:13:15.790Z,99680.97
2023-03-14T22:15:46.035Z,99678.80
2023-03-14T22:18:15.897Z,99672.77
2023-03-14T22:20:44.886Z,99679.67
2023-03-14T22:23:13.601Z,99677.31
2023-03-14T22:25:43.667Z,99676.86
2023-03-14T22:28:11.805Z,99674.55
2023-03-14T22:30:39.860Z,99677.54
2023-03-14T22:33:08.157Z,99678.58
2023-03-14T22:35:36.397Z,99686.14
2023-03-14T22:38:04.453Z,99691.84
2023-03-14T22:40:32.683Z,99695.23
2023-03-14T22:43:00.737Z,99697.16
2023-03-14T22:45:28.804Z,99693.67
2023-03-14T22:47:57.696Z,99707.53
2023-03-14T22:50:25.876Z,99717.80
2023-03-14T22:52:54.854Z,99731.96
2023-03-14T22:55:22.988Z,99719.05
2023-03-14T22:57:52.942Z,99754.21
2023-03-14T23:00:21.319Z,99766.05
2023-03-14T23:02:49.903Z,99775.95
2023-03-14T23:05:18.059Z,99770.25
2023-03-14T23:07:46.132Z,99773.36
2023-03-14T23:10:14.190Z,99785.41
2023-03-14T23:12:45.906Z,99800.42
2023-03-14T23:15:17.802Z,99809.59
2023-03-14T23:17:46.472Z,99822.27
2023-03-14T23:20:15.223Z,99837.67
2023-03-14T23:22:43.319Z,99847.52
2023-03-14T23:25:12.321Z,99850.46
2023-03-14T23:27:46.245Z,99877.39
2023-03-14T23:30:15.511Z,99879.35
2023-03-14T23:32:43.772Z,99874.70
2023-03-14T23:35:12.961Z,99876.65
2023-03-14T23:37:41.030Z,99867.89
2023-03-14T23:40:10.586Z,99879.44
2023-03-14T23:42:38.987Z,99896.48
2023-03-14T23:45:07.840Z,99912.10
2023-03-14T23:47:35.845Z,99925.06
2023-03-14T23:50:04.262Z,99931.36
2023-03-14T23:52:32.363Z,99933.70
2023-03-14T23:55:00.588Z,99934.73
2023-03-14T23:57:28.666Z,99933.19
2023-03-14T23:59:56.682Z,99940.73
